Flight Track Log - Related Links

Times and Time Zones

All times are in EDT time to prevent confusion due to time zone crossing. See the BER2148 flight status page for this flight to view local times or setup timezone preferences in your user account.

Time Position Orientation Groundspeed Altitude Reporting Facility
EDT Latitude Longitude Course Direction KTS MPH feet Rate Location/Type
Sat 06:17:00 AM 49.4099 6.2892 201° Southwest  Level Estimated
Sat 06:18:00 AM 49.3057 6.2302 200° South  Level Estimated
Sat 06:19:00 AM 49.2014 6.1714 200° South  Level Estimated
Sat 06:20:00 AM 49.0971 6.1129 200° South  Level Estimated
Sat 06:21:00 AM 48.9928 6.0546 200° South  Level Estimated
Sat 06:22:00 AM 48.8885 5.9966 200° South  Level Estimated
Sat 06:23:00 AM 48.7841 5.9388 200° South  Level Estimated
Sat 06:24:00 AM 48.6797 5.8813 200° South  Level Estimated
Sat 06:25:00 AM 48.5752 5.8240 200° South  Level Estimated
Sat 06:26:00 AM 48.4708 5.7669 200° South  Level Estimated
Sat 06:27:00 AM 48.3663 5.7100 200° South  Level Estimated
Sat 06:28:00 AM 48.2618 5.6534 200° South  Level Estimated
Sat 06:29:00 AM 48.1572 5.5971 200° South  Level Estimated
Sat 06:30:00 AM 48.0526 5.5409 200° South  Level Estimated
Sat 06:31:00 AM 47.9480 5.4850 200° South  Level Estimated
Sat 06:32:00 AM 47.8434 5.4293 200° South  Level Estimated
Sat 06:33:00 AM 47.7387 5.3738 200° South  Level Estimated
Sat 06:34:00 AM 47.6340 5.3186 200° South  Level Estimated
Sat 06:35:00 AM 47.5293 5.2635 200° South  Level Estimated
Sat 06:36:00 AM 47.4246 5.2087 199° South  Level Estimated
Sat 06:37:00 AM 47.3198 5.1541 199° South  Level Estimated
Sat 06:38:00 AM 47.2150 5.0998 199° South  Level Estimated
Sat 06:39:00 AM 47.1102 5.0456 199° South  Level Estimated
Sat 06:40:00 AM 47.0054 4.9917 199° South  Level Estimated
Sat 06:41:00 AM 46.9005 4.9379 199° South  Level Estimated
Sat 06:42:00 AM 46.7956 4.8844 199° South  Level Estimated
Sat 06:43:00 AM 46.6907 4.8311 199° South  Level Estimated
Sat 06:44:00 AM 46.5858 4.7780 199° South  Level Estimated
Sat 06:45:00 AM 46.4808 4.7251 199° South  Level Estimated
Sat 06:46:00 AM 46.3758 4.6724 199° South  Level Estimated
Sat 06:47:00 AM 46.2708 4.6199 199° South  Level Estimated
Sat 06:48:00 AM 46.1658 4.5676 199° South  Level Estimated
Sat 06:49:00 AM 46.0607 4.5155 199° South  Level Estimated
Sat 06:50:00 AM 45.9556 4.4636 199° South  Level Estimated
Sat 06:51:00 AM 45.8505 4.4119 199° South  Level Estimated
Sat 06:52:00 AM 45.7454 4.3604 199° South  Level Estimated
Sat 06:53:00 AM 45.6402 4.3091 199° South  Level Estimated
Sat 06:54:00 AM 45.5350 4.2579 199° South  Level Estimated
Sat 06:55:00 AM 45.4298 4.2070 199° South  Level Estimated
Sat 06:56:00 AM 45.3246 4.1563 199° South  Level Estimated
Sat 06:57:00 AM 45.2194 4.1057 199° South  Level Estimated
Sat 06:58:00 AM 45.1141 4.0553 199° South  Level Estimated
Sat 06:59:00 AM 45.0088 4.0052 199° South  Level Estimated
Sat 07:00:00 AM 44.9035 3.9552 199° South  Level Estimated
Sat 07:01:00 AM 44.7982 3.9053 199° South  Level Estimated
Sat 07:02:00 AM 44.6928 3.8557 199° South  Level Estimated
Sat 07:03:00 AM 44.5874 3.8063 198° South  Level Estimated
Sat 07:04:00 AM 44.4820 3.7570 198° South  Level Estimated
Sat 07:05:00 AM 44.3766 3.7079 198° South  Level Estimated
Sat 07:06:00 AM 44.2712 3.6590 198° South  Level Estimated
Sat 07:07:00 AM 44.1657 3.6102 198° South  Level Estimated
Sat 07:08:00 AM 44.0602 3.5617 198° South  Level Estimated
Sat 07:09:00 AM 43.9547 3.5133 198° South  Level Estimated
Sat 07:10:00 AM 43.8492 3.4650 198° South  Level Estimated
Sat 07:11:00 AM 43.7437 3.4170 198° South  Level Estimated
Sat 07:12:00 AM 43.6381 3.3691 198° South  Level Estimated
Sat 07:13:00 AM 43.5325 3.3214 198° South  Level Estimated
Sat 07:14:00 AM 43.4269 3.2738 198° South  Level Estimated
Sat 07:15:00 AM 43.3213 3.2264 198° South  Level Estimated
Sat 07:16:00 AM 43.2157 3.1792 198° South  Level Estimated
Sat 07:17:00 AM 43.1100 3.1321 198° South  Level Estimated
Sat 07:18:00 AM 43.0043 3.0852 198° South  Level Estimated
Sat 07:19:00 AM 42.8986 3.0385 198° South  Level Estimated
Sat 07:20:00 AM 42.7929 2.9919 198° South  Level Estimated
Sat 07:21:00 AM 42.6872 2.9455 198° South  Level Estimated
Sat 07:22:00 AM 42.5814 2.8993 198° South  Level Estimated
Sat 07:23:00 AM 42.4757 2.8531 198° South  Level Estimated
Sat 07:24:00 AM 42.3699 2.8072 198° South  Level Estimated
Sat 07:25:00 AM 42.2640 2.7614 198° South  Level Estimated
Sat 07:26:00 AM 42.1582 2.7158 198° South  Level Estimated
Sat 07:27:00 AM 42.0524 2.6703 198° South  Level Estimated
Sat 07:28:00 AM 41.9465 2.6249 198° South  Level Estimated
Sat 07:29:00 AM 41.8406 2.5798 198° South  Level Estimated
Sat 07:30:00 AM 41.7347 2.5347 198° South  Level Estimated
Sat 07:31:00 AM 41.6288 2.4899 198° South  Level Estimated
Sat 07:32:00 AM 41.5229 2.4451 198° South  Level Estimated
Sat 07:33:00 AM 41.4169 2.4005 198° South  Level Estimated
Sat 07:34:00 AM 41.3110 2.3561 197° South  Level Estimated
Sat 07:35:00 AM 41.2050 2.3118 197° South  Level Estimated
Sat 07:36:00 AM 41.0990 2.2676 197° South  Level Estimated
Sat 07:37:00 AM 40.9930 2.2236 197° South  Level Estimated
Sat 07:38:00 AM 40.8869 2.1797 197° South  Level Estimated
Sat 07:39:00 AM 40.7809 2.1360 197° South  Level Estimated
Sat 07:40:00 AM 40.6748 2.0924 197° South  Level Estimated
Sat 07:41:00 AM 40.5687 2.0489 197° South  Level Estimated
Sat 07:42:00 AM 40.4626 2.0056 197° South  Level Estimated
Sat 07:43:00 AM 40.3565 1.9624 197° South  Level Estimated
Sat 07:44:00 AM 40.2504 1.9194 197° South  Level Estimated
Sat 07:45:00 AM 40.1442 1.8764 197° South  Level Estimated
Sat 07:46:00 AM 40.0380 1.8337 197° South  Level Estimated
Sat 07:47:00 AM 39.9319 1.7910 197° South  Level Estimated
Sat 07:48:00 AM 39.8256 1.7485 197° South  Level Estimated
Sat 07:49:00 AM 39.7194 1.7061 197° South  Level Estimated
Sat 07:50:00 AM 39.6132 1.6639 197° South  Level Estimated
Sat 07:51:00 AM 39.5070 1.6218 197° South  Level Estimated
Sat 07:52:00 AM 39.4007 1.5798 197° South  Level Estimated
Sat 07:53:00 AM 39.2944 1.5379 197° South  Level Estimated
Sat 07:54:00 AM 39.1881 1.4962 197° South  Level Estimated
Sat 07:55:00 AM 39.0818 1.4546 197° South  Level Estimated
Sat 07:56:00 AM 38.9755 1.4131 197° South  Level Estimated
Sat 07:57:00 AM 38.8729 1.3731 197° South  Level Estimated
Sat 07:58:00 AM 38.8729 1.3731 229° Southwest  Level Estimated
Sat 07:59:00 AM 38.8729 1.3731 229° Southwest  Level Estimated
Sat 08:00:00 AM 38.8729 1.3731 229° Southwest  Level Estimated
Sat 08:01:00 AM 38.8729 1.3731 229° Southwest  Level Estimated
Sat 08:02:00 AM 38.8729 1.3731 229° Southwest  Level Estimated
Sat 08:03:00 AM 38.8729 1.3731 229° Southwest  Level Estimated
Sat 08:04:00 AM 38.8729 1.3731 229° Southwest  Level Estimated
Sat 08:05:00 AM 38.8729 1.3731 229° Southwest  Level Estimated
Sat 08:06:00 AM 38.8729 1.3731 229° Southwest  Level Estimated
Sat 08:07:00 AM 38.8729 1.3731 229° Southwest  Level Estimated
Sat 08:08:00 AM 38.8729 1.3731 229° Southwest  Level Estimated
Sat 08:09:00 AM 38.8729 1.3731 229° Southwest  Level Estimated
Sat 08:10:00 AM 38.8729 1.3731 229° Southwest  Level Estimated
Sat 08:11:00 AM 38.8729 1.3731 229° Southwest  Level Estimated
Sat 08:12:00 AM 38.8729 1.3731 229° Southwest  Level Estimated
Sat 08:13:00 AM 38.8729 1.3731 229° Southwest  Level Estimated

Login

Don't have an account? Register now (free) for customized features, flight alerts, and more!